sensor_id;sensor_type;location;lat;lon;timestamp;P1;durP1;ratioP1;P2;durP2;ratioP2
64242;SDS011;50573;51.512;5.386;2022-11-21T00:02:39;25.77;;;6.45;;
64242;SDS011;50573;51.512;5.386;2022-11-21T00:12:42;21.55;;;7.63;;
64242;SDS011;50573;51.512;5.386;2022-11-21T00:22:46;30.33;;;9.02;;
64242;SDS011;50573;51.512;5.386;2022-11-21T00:32:50;23.70;;;7.73;;
64242;SDS011;50573;51.512;5.386;2022-11-21T00:42:54;22.30;;;6.43;;
64242;SDS011;50573;51.512;5.386;2022-11-21T00:52:57;25.63;;;7.13;;
64242;SDS011;50573;51.512;5.386;2022-11-21T01:03:02;38.08;;;8.65;;
64242;SDS011;50573;51.512;5.386;2022-11-21T01:13:05;25.43;;;8.03;;
64242;SDS011;50573;51.512;5.386;2022-11-21T01:23:09;34.75;;;8.57;;
64242;SDS011;50573;51.512;5.386;2022-11-21T01:33:12;24.23;;;7.30;;
64242;SDS011;50573;51.512;5.386;2022-11-21T01:43:16;37.20;;;9.60;;
64242;SDS011;50573;51.512;5.386;2022-11-21T01:53:19;35.60;;;9.50;;
64242;SDS011;50573;51.512;5.386;2022-11-21T02:03:24;39.08;;;9.10;;
64242;SDS011;50573;51.512;5.386;2022-11-21T02:13:30;42.40;;;10.45;;
64242;SDS011;50573;51.512;5.386;2022-11-21T02:23:36;38.72;;;11.40;;
64242;SDS011;50573;51.512;5.386;2022-11-21T02:33:44;36.90;;;12.88;;
64242;SDS011;50573;51.512;5.386;2022-11-21T02:43:48;214.70;;;27.77;;
64242;SDS011;50573;51.512;5.386;2022-11-21T02:53:55;492.58;;;58.67;;
64242;SDS011;50573;51.512;5.386;2022-11-21T03:03:58;601.20;;;69.67;;
64242;SDS011;50573;51.512;5.386;2022-11-21T03:14:03;505.38;;;71.35;;
64242;SDS011;50573;51.512;5.386;2022-11-21T03:24:06;259.83;;;62.07;;
64242;SDS011;50573;51.512;5.386;2022-11-21T03:34:11;356.30;;;67.57;;
64242;SDS011;50573;51.512;5.386;2022-11-21T03:44:14;594.67;;;78.83;;
64242;SDS011;50573;51.512;5.386;2022-11-21T03:54:18;658.95;;;86.80;;
64242;SDS011;50573;51.512;5.386;2022-11-21T04:04:22;429.17;;;57.70;;
64242;SDS011;50573;51.512;5.386;2022-11-21T04:14:27;350.80;;;56.17;;
64242;SDS011;50573;51.512;5.386;2022-11-21T04:24:30;506.80;;;71.93;;
64242;SDS011;50573;51.512;5.386;2022-11-21T04:34:34;415.08;;;69.72;;
64242;SDS011;50573;51.512;5.386;2022-11-21T04:44:38;549.03;;;78.47;;
64242;SDS011;50573;51.512;5.386;2022-11-21T04:54:42;487.85;;;75.20;;
64242;SDS011;50573;51.512;5.386;2022-11-21T05:04:45;201.33;;;40.37;;
64242;SDS011;50573;51.512;5.386;2022-11-21T05:14:50;431.00;;;60.40;;
64242;SDS011;50573;51.512;5.386;2022-11-21T05:24:53;762.60;;;79.77;;
64242;SDS011;50573;51.512;5.386;2022-11-21T05:34:57;282.30;;;53.10;;
64242;SDS011;50573;51.512;5.386;2022-11-21T05:45:00;158.47;;;36.97;;
64242;SDS011;50573;51.512;5.386;2022-11-21T05:55:05;139.60;;;42.40;;
64242;SDS011;50573;51.512;5.386;2022-11-21T06:15:12;87.40;;;35.50;;
64242;SDS011;50573;51.512;5.386;2022-11-21T06:25:15;71.30;;;26.00;;
64242;SDS011;50573;51.512;5.386;2022-11-21T06:35:20;111.97;;;40.80;;
64242;SDS011;50573;51.512;5.386;2022-11-21T06:45:24;123.43;;;45.22;;
64242;SDS011;50573;51.512;5.386;2022-11-21T06:55:29;103.97;;;42.47;;
64242;SDS011;50573;51.512;5.386;2022-11-21T07:05:32;112.65;;;42.22;;
64242;SDS011;50573;51.512;5.386;2022-11-21T07:15:37;98.22;;;40.95;;
64242;SDS011;50573;51.512;5.386;2022-11-21T07:25:40;93.40;;;37.03;;
64242;SDS011;50573;51.512;5.386;2022-11-21T07:35:44;79.13;;;33.92;;
64242;SDS011;50573;51.512;5.386;2022-11-21T07:45:47;61.23;;;26.93;;
64242;SDS011;50573;51.512;5.386;2022-11-21T07:55:52;47.95;;;23.08;;
64242;SDS011;50573;51.512;5.386;2022-11-21T08:05:54;37.07;;;18.73;;
64242;SDS011;50573;51.512;5.386;2022-11-21T08:16:00;35.20;;;16.42;;
64242;SDS011;50573;51.512;5.386;2022-11-21T08:26:03;37.80;;;16.33;;
64242;SDS011;50573;51.512;5.386;2022-11-21T08:36:12;31.63;;;14.68;;
64242;SDS011;50573;51.512;5.386;2022-11-21T08:46:15;34.40;;;11.47;;
64242;SDS011;50573;51.512;5.386;2022-11-21T08:56:20;30.48;;;11.93;;
64242;SDS011;50573;51.512;5.386;2022-11-21T09:06:23;28.73;;;11.03;;
64242;SDS011;50573;51.512;5.386;2022-11-21T09:16:28;24.45;;;10.18;;
64242;SDS011;50573;51.512;5.386;2022-11-21T09:26:48;24.95;;;9.85;;
64242;SDS011;50573;51.512;5.386;2022-11-21T09:36:52;19.38;;;9.18;;
64242;SDS011;50573;51.512;5.386;2022-11-21T09:46:58;26.60;;;9.10;;
64242;SDS011;50573;51.512;5.386;2022-11-21T09:57:11;25.15;;;8.68;;
64242;SDS011;50573;51.512;5.386;2022-11-21T10:07:20;22.98;;;8.57;;
64242;SDS011;50573;51.512;5.386;2022-11-21T10:17:30;17.75;;;6.60;;
64242;SDS011;50573;51.512;5.386;2022-11-21T10:27:45;27.45;;;6.00;;
64242;SDS011;50573;51.512;5.386;2022-11-21T10:37:54;17.35;;;7.25;;
64242;SDS011;50573;51.512;5.386;2022-11-21T10:48:01;25.35;;;6.38;;
64242;SDS011;50573;51.512;5.386;2022-11-21T10:58:17;21.88;;;5.82;;
64242;SDS011;50573;51.512;5.386;2022-11-21T11:08:20;15.65;;;5.88;;
64242;SDS011;50573;51.512;5.386;2022-11-21T11:18:25;16.10;;;5.28;;
64242;SDS011;50573;51.512;5.386;2022-11-21T11:28:32;13.70;;;4.75;;
64242;SDS011;50573;51.512;5.386;2022-11-21T11:38:38;15.82;;;5.43;;
64242;SDS011;50573;51.512;5.386;2022-11-21T11:48:45;19.88;;;4.22;;
64242;SDS011;50573;51.512;5.386;2022-11-21T11:59:13;15.47;;;5.03;;
64242;SDS011;50573;51.512;5.386;2022-11-21T12:09:22;16.30;;;3.60;;
64242;SDS011;50573;51.512;5.386;2022-11-21T12:19:34;12.30;;;2.83;;
64242;SDS011;50573;51.512;5.386;2022-11-21T12:29:41;15.02;;;3.60;;
64242;SDS011;50573;51.512;5.386;2022-11-21T12:39:59;13.52;;;2.80;;
64242;SDS011;50573;51.512;5.386;2022-11-21T12:50:35;10.07;;;2.88;;
64242;SDS011;50573;51.512;5.386;2022-11-21T13:01:09;10.77;;;3.17;;
64242;SDS011;50573;51.512;5.386;2022-11-21T13:11:42;20.33;;;5.38;;
64242;SDS011;50573;51.512;5.386;2022-11-21T13:22:03;10.88;;;4.60;;
64242;SDS011;50573;51.512;5.386;2022-11-21T13:53:09;11.02;;;4.32;;
64242;SDS011;50573;51.512;5.386;2022-11-21T14:03:41;10.98;;;3.33;;
64242;SDS011;50573;51.512;5.386;2022-11-21T14:14:01;13.27;;;3.95;;
64242;SDS011;50573;51.512;5.386;2022-11-21T14:24:11;17.77;;;4.37;;
64242;SDS011;50573;51.512;5.386;2022-11-21T14:34:25;13.02;;;4.30;;
64242;SDS011;50573;51.512;5.386;2022-11-21T14:44:29;11.77;;;3.63;;
64242;SDS011;50573;51.512;5.386;2022-11-21T14:54:45;12.55;;;3.90;;
64242;SDS011;50573;51.512;5.386;2022-11-21T15:05:11;10.35;;;3.38;;
64242;SDS011;50573;51.512;5.386;2022-11-21T15:15:36;16.73;;;4.65;;
64242;SDS011;50573;51.512;5.386;2022-11-21T15:25:44;9.50;;;3.47;;
64242;SDS011;50573;51.512;5.386;2022-11-21T15:35:51;19.23;;;4.97;;
64242;SDS011;50573;51.512;5.386;2022-11-21T15:45:59;11.52;;;4.40;;
64242;SDS011;50573;51.512;5.386;2022-11-21T15:56:04;10.32;;;4.35;;
64242;SDS011;50573;51.512;5.386;2022-11-21T16:16:12;15.15;;;3.78;;
64242;SDS011;50573;51.512;5.386;2022-11-21T16:26:15;9.73;;;2.73;;
64242;SDS011;50573;51.512;5.386;2022-11-21T16:36:19;13.85;;;3.70;;
64242;SDS011;50573;51.512;5.386;2022-11-21T16:46:23;13.15;;;3.70;;
64242;SDS011;50573;51.512;5.386;2022-11-21T16:56:28;19.30;;;4.25;;
64242;SDS011;50573;51.512;5.386;2022-11-21T17:06:31;14.70;;;4.20;;
64242;SDS011;50573;51.512;5.386;2022-11-21T17:16:35;13.15;;;3.97;;
64242;SDS011;50573;51.512;5.386;2022-11-21T17:26:40;16.45;;;4.25;;
64242;SDS011;50573;51.512;5.386;2022-11-21T17:36:44;11.55;;;4.07;;
64242;SDS011;50573;51.512;5.386;2022-11-21T17:46:47;16.00;;;4.47;;
64242;SDS011;50573;51.512;5.386;2022-11-21T17:56:51;12.20;;;4.65;;
64242;SDS011;50573;51.512;5.386;2022-11-21T18:06:57;13.45;;;4.47;;
64242;SDS011;50573;51.512;5.386;2022-11-21T18:17:02;20.27;;;5.40;;
64242;SDS011;50573;51.512;5.386;2022-11-21T18:27:05;14.37;;;5.93;;
64242;SDS011;50573;51.512;5.386;2022-11-21T18:37:09;14.98;;;5.97;;
64242;SDS011;50573;51.512;5.386;2022-11-21T18:47:12;17.20;;;5.67;;
64242;SDS011;50573;51.512;5.386;2022-11-21T18:57:22;21.42;;;6.57;;
64242;SDS011;50573;51.512;5.386;2022-11-21T19:07:25;20.80;;;7.00;;
64242;SDS011;50573;51.512;5.386;2022-11-21T19:17:30;21.38;;;7.93;;
64242;SDS011;50573;51.512;5.386;2022-11-21T19:27:33;21.33;;;8.67;;
64242;SDS011;50573;51.512;5.386;2022-11-21T19:37:37;26.52;;;8.65;;
64242;SDS011;50573;51.512;5.386;2022-11-21T19:47:40;24.63;;;9.47;;
64242;SDS011;50573;51.512;5.386;2022-11-21T19:57:46;22.37;;;9.50;;
64242;SDS011;50573;51.512;5.386;2022-11-21T20:07:49;27.97;;;9.27;;
64242;SDS011;50573;51.512;5.386;2022-11-21T20:17:53;24.90;;;7.75;;
64242;SDS011;50573;51.512;5.386;2022-11-21T20:27:56;25.10;;;9.13;;
64242;SDS011;50573;51.512;5.386;2022-11-21T20:38:01;24.52;;;8.55;;
64242;SDS011;50573;51.512;5.386;2022-11-21T20:48:04;19.30;;;6.43;;
64242;SDS011;50573;51.512;5.386;2022-11-21T20:58:13;24.35;;;7.75;;
64242;SDS011;50573;51.512;5.386;2022-11-21T21:08:16;19.47;;;8.10;;
64242;SDS011;50573;51.512;5.386;2022-11-21T21:18:20;27.10;;;9.35;;
64242;SDS011;50573;51.512;5.386;2022-11-21T21:28:23;22.00;;;7.77;;
64242;SDS011;50573;51.512;5.386;2022-11-21T21:38:28;25.20;;;8.45;;
64242;SDS011;50573;51.512;5.386;2022-11-21T21:48:31;17.87;;;6.90;;
64242;SDS011;50573;51.512;5.386;2022-11-21T21:58:36;18.85;;;8.40;;
64242;SDS011;50573;51.512;5.386;2022-11-21T22:08:40;23.92;;;9.10;;
64242;SDS011;50573;51.512;5.386;2022-11-21T22:18:46;21.10;;;8.38;;
64242;SDS011;50573;51.512;5.386;2022-11-21T22:28:48;18.83;;;8.60;;
64242;SDS011;50573;51.512;5.386;2022-11-21T22:38:53;19.70;;;9.00;;
64242;SDS011;50573;51.512;5.386;2022-11-21T22:48:57;27.27;;;9.65;;
64242;SDS011;50573;51.512;5.386;2022-11-21T22:59:02;21.42;;;8.80;;
64242;SDS011;50573;51.512;5.386;2022-11-21T23:09:05;24.23;;;8.37;;
64242;SDS011;50573;51.512;5.386;2022-11-21T23:19:09;26.38;;;9.20;;
64242;SDS011;50573;51.512;5.386;2022-11-21T23:29:12;27.43;;;9.13;;
64242;SDS011;50573;51.512;5.386;2022-11-21T23:39:16;18.33;;;9.48;;
64242;SDS011;50573;51.512;5.386;2022-11-21T23:49:19;15.93;;;6.97;;
64242;SDS011;50573;51.512;5.386;2022-11-21T23:59:23;28.40;;;10.55;;
